MROCMNMG

Guest
Details From MROC - San Jose Juan Santamaria Intl
To MNMG - Managua Intl
Flight Number -
Tags generated
Created
Modified
Stats Distance 173 nm / 321 km
Max Altitude 18,000 ft / 5,486 m
Waypoints 3
Social Downloads 5
Likes 0
Share VATSIM

Download

Looking for another format? Having issues loading an existing format? Contact us
Advertisement - Login to hide

Notes

Basic altitude profile: - Ascent Rate: 2500ft/min - Ascent Speed: 250kts - Cruise Altitude: 35000ft - Cruise Speed: 420kts - Descent Rate: 1500ft/min - Descent Speed: 250kts Options: - Use NATs: yes - Use PACOTS: yes - Use low airways: yes - Use high airways: yes

Route

MROC ULAPO MNMG

ID Type Via Altitude Latitude Longitude Leg Dist Tot Dist Heading (true) Name
O MROC APT - 0 ft / 0 m 9.99393˚ -84.20888˚ - 0 nm - San Jose Juan Santamaria Intl
ULAPO FIX - 18,000 ft / 5,486 m 11.02833˚ -85.17167˚ 84 nm 84 nm 318° / 317° -
O MNMG APT - 0 ft / 0 m 12.14149˚ -86.16818˚ 88 nm 173 nm 319° / 319° Managua Intl

Altitude Profile

Advertisement - Login to hide

Weather


0- 5 10 15 20 25 30 35+ Temperature / ° C

Clouds and Precipitation
Forecast for 2017-12-16 00:00 UTC. Updated an hour ago

Ground ~20,000 ft ~40,000 ft Winds

MROC

Details ICAO MROC (SJO)
Name San Jose Juan Santamaria Intl
Region Costa Rica
Timezone America/Costa_Rica (UTC-6.0)
Stats Elevation 3,021 ft / 921 m (AMSL)
Location 9.993927° -84.208884°
Runways 1
Magnetic Variation 1.719° W

METAR

MROC 152200Z 11011KT 070V130 9999 FEW045 24/15 A2994 NOSIG

Decode

TAF

TAF MROC 151100Z 1512/1612 10006KT 9999 FEW030 TX30/1518Z TN19/1610Z BECMG 1517/1520 24006KT BECMG 1600/1603 09007KT

Decode

Departure Runways

ID Width Length Bearing (true) Bearing (mag) Surface Threshold Offset Overrun Length
07 151 ft / 46 m 9,994 ft / 3,046 m 68.91° 70.63° Asphalt 0 ft / 0 m 200 ft / 61 m
25 151 ft / 46 m 9,994 ft / 3,046 m 248.92° 250.64° Asphalt 1,969 ft / 600 m 200 ft / 61 m

MNMG

Details ICAO MNMG (MGA)
Name Managua Intl
Region Nicaragua
Timezone America/Managua (UTC-6.0)
Stats Elevation 194 ft / 59 m (AMSL)
Location 12.141493° -86.168178°
Runways 1
Magnetic Variation 0.946° W

METAR

MNMG 152200Z 11010KT 9999 FEW023 29/20 Q1009 A2980 NOSIG

Decode

TAF

Not found

Destination Runways

ID Width Length Bearing (true) Bearing (mag) Surface Threshold Offset Overrun Length
09 148 ft / 45 m 8,008 ft / 2,441 m 96.54° 97.49° Asphalt 0 ft / 0 m 100 ft / 30 m
27 148 ft / 45 m 8,008 ft / 2,441 m 276.55° 277.50° Asphalt 0 ft / 0 m 100 ft / 30 m

Approach Navaids

Runway Type Ident Frequency Range Bearing (true) Bearing (mag) Slope Elevation
09 Localiser IMGA 109.10 MHz 18 nm / 33 km 96.37° 97.32° - 194 ft / 59 m (AMSL)
09 Glidescope IMGA 109.10 MHz 10 nm / 19 km 96.55° 97.49° 3.10° 194 ft / 59 m (AMSL)
09 DME IMGA 109.10 MHz 18 nm / 33 km - - - 194 ft / 59 m (AMSL)

Popular Alternatives